Time;durP1;ratioP1;P1;durP2;ratioP2;P2;SDS_P1;SDS_P2;PMS_P1;PMS_P2;Temp;Humidity;BMP_temperature;BMP_pressure;BME280_temperature;BME280_humidity;BME280_pressure;Samples;Min_cycle;Max_cycle;Signal;HPM_P1;HPM_P2
2023/09/06 06:49:11;;;;;;;1.70;1.30;;;28.40;99.90;;;;;;3993430;23;20248;-71
2023/09/06 06:51:40;;;;;;;3.00;1.00;;;28.70;99.90;;;;;;4933807;29;20737;-71
2023/09/06 06:54:08;;;;;;;2.25;1.17;;;29.10;99.90;;;;;;4933675;29;20244;-71
2023/09/06 06:56:34;;;;;;;1.40;1.05;;;29.40;99.90;;;;;;4922200;29;20305;-72
2023/09/06 06:59:01;;;;;;;1.73;1.13;;;29.60;99.90;;;;;;4915355;29;20221;-71
2023/09/06 07:01:28;;;;;;;2.22;1.40;;;30.00;99.90;;;;;;4914632;29;20248;-71
2023/09/06 07:03:55;;;;;;;1.08;0.98;;;30.00;99.90;;;;;;4915696;29;20209;-71
2023/09/06 07:06:24;;;;;;;2.35;1.20;;;29.70;99.90;;;;;;4914960;29;20229;-72
2023/09/06 07:08:52;;;;;;;0.77;0.75;;;29.60;99.90;;;;;;4914706;29;20213;-71
2023/09/06 07:11:19;;;;;;;1.48;1.02;;;29.50;99.90;;;;;;4913102;29;20309;-71
2023/09/06 07:13:48;;;;;;;1.30;1.00;;;29.30;99.90;;;;;;4916554;29;20300;-75
2023/09/06 07:16:16;;;;;;;2.30;1.42;;;29.10;99.90;;;;;;4913886;29;20633;-73
2023/09/06 07:18:43;;;;;;;2.08;1.17;;;29.00;99.90;;;;;;4927708;29;20212;-70
2023/09/06 07:21:10;;;;;;;2.50;1.10;;;28.70;99.90;;;;;;4914041;29;20253;-70
2023/09/06 07:23:38;;;;;;;2.30;1.10;;;28.80;99.90;;;;;;4915386;29;20297;-68
2023/09/06 07:26:05;;;;;;;1.30;1.00;;;29.10;99.90;;;;;;4917910;29;20318;-72
2023/09/06 07:28:38;;;;;;;1.30;0.88;;;29.80;99.90;;;;;;4918585;29;20301;-68
2023/09/06 07:31:05;;;;;;;1.67;1.10;;;29.60;99.90;;;;;;4918260;29;20220;-69
2023/09/06 07:33:32;;;;;;;1.30;0.90;;;29.70;99.90;;;;;;4918642;29;20209;-71
2023/09/06 07:35:59;;;;;;;1.83;1.20;;;29.80;99.90;;;;;;4919554;29;20268;-71
2023/09/06 07:38:26;;;;;;;1.45;1.00;;;29.80;99.90;;;;;;4919309;29;20209;-71
2023/09/06 07:40:58;;;;;;;3.38;1.00;;;30.10;99.90;;;;;;4919879;29;20252;-72
2023/09/06 07:43:26;;;;;;;2.40;1.20;;;30.40;99.90;;;;;;4919794;29;20724;-72
2023/09/06 07:45:53;;;;;;;1.58;0.90;;;29.50;99.90;;;;;;4920051;29;20240;-72
2023/09/06 07:48:20;;;;;;;2.03;0.98;;;29.80;99.90;;;;;;4919963;29;20220;-72
2023/09/06 07:50:48;;;;;;;1.52;1.20;;;29.90;99.90;;;;;;4919686;29;20244;-72
2023/09/06 07:53:15;;;;;;;3.00;1.10;;;30.20;99.90;;;;;;4920138;29;20245;-72
2023/09/06 07:55:44;;;;;;;0.77;0.77;;;30.60;99.90;;;;;;4919449;29;20649;-72
2023/09/06 07:58:13;;;;;;;3.00;1.02;;;30.40;99.90;;;;;;4919641;29;20324;-72
2023/09/06 08:00:40;;;;;;;2.00;1.10;;;30.20;99.90;;;;;;4919583;29;20248;-71
2023/09/06 08:03:07;;;;;;;2.05;1.08;;;30.30;99.90;;;;;;4919608;29;20711;-71
2023/09/06 08:05:35;;;;;;;1.25;1.00;;;30.40;99.90;;;;;;4919260;29;20269;-72
2023/09/06 08:08:02;;;;;;;2.05;1.10;;;30.80;99.90;;;;;;4919653;29;20243;-72
2023/09/06 08:10:29;;;;;;;1.23;1.00;;;30.80;99.90;;;;;;4919761;29;20308;-72
2023/09/06 08:12:56;;;;;;;1.25;0.95;;;30.70;99.90;;;;;;4919616;29;20672;-71
2023/09/06 08:15:25;;;;;;;1.63;1.20;;;30.70;99.90;;;;;;4919521;29;20641;-72
2023/09/06 08:17:52;;;;;;;2.30;1.10;;;31.00;99.90;;;;;;4919284;29;20324;-71
2023/09/06 08:20:19;;;;;;;2.22;1.20;;;31.00;99.90;;;;;;4919382;29;20263;-72
2023/09/06 08:22:47;;;;;;;1.83;1.10;;;30.30;99.90;;;;;;4919379;29;20669;-72
2023/09/06 08:25:14;;;;;;;1.63;1.10;;;29.90;99.90;;;;;;4919097;29;20296;-72
2023/09/06 08:27:41;;;;;;;1.60;1.13;;;29.10;99.90;;;;;;4919225;29;20237;-72
2023/09/06 08:30:10;;;;;;;1.75;1.15;;;28.50;99.90;;;;;;4919001;29;20680;-72
2023/09/06 08:32:39;;;;;;;2.17;1.98;;;28.60;99.90;;;;;;4918757;29;20687;-72
2023/09/06 08:35:06;;;;;;;1.67;0.82;;;29.20;99.90;;;;;;4919099;29;20217;-72
2023/09/06 08:37:34;;;;;;;1.77;1.30;;;29.00;99.90;;;;;;4919126;29;20233;-72
2023/09/06 08:40:01;;;;;;;1.45;1.05;;;29.20;99.90;;;;;;4919144;29;20300;-72
2023/09/06 08:42:33;;;;;;;1.75;1.10;;;29.40;99.90;;;;;;4919083;29;20679;-72
2023/09/06 08:45:01;;;;;;;1.50;1.13;;;29.60;99.90;;;;;;4919261;29;20218;-71
2023/09/06 08:47:29;;;;;;;1.10;1.00;;;29.60;99.90;;;;;;4918915;29;20236;-71
2023/09/06 08:49:58;;;;;;;1.15;0.80;;;29.60;99.90;;;;;;4918766;29;20248;-71
2023/09/06 08:52:25;;;;;;;3.13;1.08;;;29.30;99.90;;;;;;4918925;29;20296;-71
2023/09/06 08:54:53;;;;;;;2.42;1.10;;;29.30;99.90;;;;;;4918846;29;20216;-72
2023/09/06 08:57:22;;;;;;;2.55;1.35;;;29.20;99.90;;;;;;4918699;29;20337;-71
2023/09/06 08:59:49;;;;;;;3.40;1.02;;;29.50;99.90;;;;;;4918677;29;20304;-71
2023/09/06 09:02:16;;;;;;;2.40;1.17;;;29.80;99.90;;;;;;4918600;29;20605;-71
2023/09/06 09:04:43;;;;;;;1.30;1.10;;;29.80;99.90;;;;;;4918408;29;20673;-72
2023/09/06 09:07:14;;;;;;;3.15;0.90;;;29.90;99.90;;;;;;4918453;29;20237;-71
2023/09/06 09:09:58;;;;;;;1.88;1.13;;;30.30;99.90;;;;;;4918447;29;20268;-71
2023/09/06 09:12:26;;;;;;;2.28;1.20;;;30.40;99.90;;;;;;4918722;29;20272;-71
2023/09/06 09:14:54;;;;;;;1.10;0.90;;;30.10;99.90;;;;;;4918552;29;20213;-71
2023/09/06 09:17:22;;;;;;;1.55;1.30;;;30.30;99.90;;;;;;4918182;29;20248;-71
2023/09/06 09:19:50;;;;;;;1.08;0.95;;;30.50;99.90;;;;;;4918223;29;20209;-71
2023/09/06 09:22:24;;;;;;;1.23;1.10;;;30.70;99.90;;;;;;4918258;29;20209;-71
2023/09/06 09:24:51;;;;;;;2.03;1.20;;;30.20;99.90;;;;;;4918067;29;20293;-71
2023/09/06 09:27:19;;;;;;;1.13;1.00;;;30.20;99.90;;;;;;4918036;29;20265;-71
2023/09/06 09:29:48;;;;;;;2.92;1.15;;;29.60;99.90;;;;;;4918162;29;20668;-71
2023/09/06 09:32:16;;;;;;;2.42;1.30;;;29.60;99.90;;;;;;4917939;29;20217;-71
2023/09/06 09:34:42;;;;;;;2.10;1.02;;;29.30;99.90;;;;;;4918051;29;20662;-72
2023/09/06 09:37:09;;;;;;;1.88;1.10;;;28.90;99.90;;;;;;4918053;29;20573;-71
2023/09/06 09:39:38;;;;;;;1.73;1.10;;;28.30;99.90;;;;;;4918243;29;20248;-71
2023/09/06 09:42:06;;;;;;;1.40;1.00;;;27.90;99.90;;;;;;4917811;29;20213;-71
2023/09/06 09:44:33;;;;;;;1.80;0.85;;;27.80;99.90;;;;;;4916966;29;20301;-72
2023/09/06 09:47:10;;;;;;;2.42;1.10;;;27.50;99.90;;;;;;4917485;29;20230;-72
2023/09/06 09:49:39;;;;;;;1.20;1.00;;;27.60;99.90;;;;;;4917622;29;20585;-72
2023/09/06 09:52:09;;;;;;;4.15;1.30;;;27.40;99.90;;;;;;4917887;29;20236;-72
2023/09/06 09:54:41;;;;;;;2.22;1.00;;;27.30;99.90;;;;;;4917957;29;20209;-72
2023/09/06 09:57:09;;;;;;;2.00;1.42;;;27.40;99.90;;;;;;4917473;29;20323;-72
2023/09/06 09:59:37;;;;;;;1.52;1.10;;;27.50;99.90;;;;;;4917552;29;20255;-72
2023/09/06 10:02:06;;;;;;;2.40;1.13;;;27.70;99.90;;;;;;4917210;29;20633;-72
2023/09/06 10:04:37;;;;;;;1.05;0.90;;;27.70;99.90;;;;;;4917827;29;20240;-72
2023/09/06 10:07:06;;;;;;;4.90;1.27;;;27.60;99.90;;;;;;4917609;29;20226;-72
2023/09/06 10:09:38;;;;;;;2.40;1.27;;;27.60;99.90;;;;;;4917653;29;20205;-72
2023/09/06 10:12:08;;;;;;;2.35;1.10;;;27.50;99.90;;;;;;4917417;29;20223;-72
2023/09/06 10:14:38;;;;;;;2.25;1.02;;;27.40;99.90;;;;;;4917443;29;20284;-72
2023/09/06 10:17:07;;;;;;;1.77;1.02;;;27.50;99.90;;;;;;4917170;29;20268;-72
2023/09/06 10:19:34;;;;;;;1.25;1.00;;;27.50;99.90;;;;;;4917409;29;20222;-72
2023/09/06 10:22:03;;;;;;;1.33;1.05;;;27.50;99.90;;;;;;4917620;29;20212;-72
2023/09/06 10:24:34;;;;;;;3.92;1.10;;;27.40;99.90;;;;;;4917183;29;20680;-72
2023/09/06 10:27:02;;;;;;;3.28;1.20;;;27.40;99.90;;;;;;4917042;29;20281;-72
2023/09/06 10:29:32;;;;;;;2.20;0.98;;;27.20;99.90;;;;;;4917001;29;20245;-72
2023/09/06 10:32:04;;;;;;;1.50;1.10;;;27.30;99.90;;;;;;4917131;29;20213;-72
2023/09/06 10:34:36;;;;;;;1.50;1.13;;;27.40;99.90;;;;;;4917250;29;20210;-72
2023/09/06 10:37:06;;;;;;;1.98;1.00;;;27.40;99.90;;;;;;4916984;29;20775;-72
2023/09/06 10:39:33;;;;;;;2.50;1.00;;;27.50;99.90;;;;;;4916830;29;20213;-72
2023/09/06 10:42:30;;;;;;;1.20;0.93;;;27.60;99.90;;;;;;4916697;29;20301;-72
2023/09/06 10:45:11;;;;;;;1.40;1.17;;;27.40;99.90;;;;;;4917033;29;20632;-72
2023/09/06 10:47:38;;;;;;;3.83;1.40;;;27.60;99.90;;;;;;4917073;29;20245;-72
2023/09/06 10:50:10;;;;;;;1.10;0.90;;;27.60;99.90;;;;;;4916592;29;20228;-72
2023/09/06 10:52:44;;;;;;;1.70;1.10;;;27.70;99.90;;;;;;4917144;29;20240;-72
2023/09/06 10:55:16;;;;;;;1.85;1.20;;;27.70;99.90;;;;;;4916904;29;20248;-72
2023/09/06 10:57:55;;;;;;;1.13;0.90;;;27.60;99.90;;;;;;4920746;29;20315;-72
2023/09/06 11:00:26;;;;;;;3.22;1.10;;;27.70;99.90;;;;;;4920831;29;20292;-72
2023/09/06 11:03:17;;;;;;;2.45;0.98;;;27.80;99.90;;;;;;4920798;29;20683;-72
2023/09/06 11:05:48;;;;;;;1.35;1.00;;;27.90;99.90;;;;;;4920458;29;20288;-72
2023/09/06 11:08:32;;;;;;;2.70;1.00;;;27.90;99.90;;;;;;4920671;29;20672;-71
2023/09/06 11:11:04;;;;;;;1.40;0.98;;;27.80;99.90;;;;;;4920526;29;20703;-71
2023/09/06 11:13:33;;;;;;;3.17;1.25;;;27.90;99.90;;;;;;4920693;29;20217;-71
2023/09/06 11:16:02;;;;;;;1.65;1.02;;;27.90;99.90;;;;;;4920599;29;20237;-71
2023/09/06 11:18:30;;;;;;;1.50;1.00;;;28.00;99.90;;;;;;4912569;29;20232;-71
2023/09/06 11:20:59;;;;;;;1.50;1.02;;;28.00;99.90;;;;;;4911399;29;20273;-72
2023/09/06 11:23:27;;;;;;;1.42;0.90;;;28.00;99.90;;;;;;4911028;29;20589;-71
2023/09/06 11:25:58;;;;;;;3.35;1.10;;;28.20;99.90;;;;;;4912871;29;20290;-71
2023/09/06 11:28:28;;;;;;;1.52;1.10;;;28.20;99.90;;;;;;4907328;29;20207;-71
2023/09/06 11:30:55;;;;;;;1.58;1.00;;;28.30;99.90;;;;;;4907164;29;20213;-72
2023/09/06 11:33:31;;;;;;;3.70;1.00;;;28.40;99.90;;;;;;4910719;29;20216;-72
2023/09/06 11:36:03;;;;;;;1.52;0.80;;;28.30;99.90;;;;;;4913042;29;20317;-72
2023/09/06 11:38:34;;;;;;;1.42;0.90;;;28.20;99.90;;;;;;4910907;29;20240;-72
2023/09/06 11:41:03;;;;;;;1.50;1.02;;;28.20;99.90;;;;;;4912081;29;20308;-72
2023/09/06 11:43:31;;;;;;;2.38;1.10;;;28.20;99.90;;;;;;4909486;29;20241;-72
2023/09/06 11:46:03;;;;;;;1.58;0.93;;;28.30;99.90;;;;;;4907918;29;20270;-72
2023/09/06 11:48:34;;;;;;;1.23;0.90;;;28.40;99.90;;;;;;4906685;29;20724;-72
2023/09/06 11:51:08;;;;;;;1.30;0.90;;;28.50;99.90;;;;;;4916924;29;20296;-72
2023/09/06 11:53:39;;;;;;;1.17;0.75;;;28.60;99.90;;;;;;4918666;29;20260;-71
2023/09/06 11:56:07;;;;;;;1.00;0.88;;;28.70;99.90;;;;;;4907919;29;20322;-72
2023/09/06 11:58:42;;;;;;;1.95;0.60;;;28.70;99.90;;;;;;4915721;29;20697;-72
2023/09/06 12:01:11;;;;;;;1.33;0.90;;;28.70;99.90;;;;;;4908908;29;20218;-71
2023/09/06 12:03:45;;;;;;;1.55;0.80;;;28.80;99.90;;;;;;4914210;29;20205;-72
2023/09/06 12:06:12;;;;;;;1.50;0.80;;;28.80;99.90;;;;;;4920111;29;20256;-71
2023/09/06 12:08:41;;;;;;;1.05;0.80;;;28.90;99.90;;;;;;4918225;29;20614;-72
2023/09/06 12:11:10;;;;;;;2.90;1.00;;;28.90;99.90;;;;;;4925632;29;20224;-73
2023/09/06 12:13:38;;;;;;;1.75;0.73;;;28.80;99.90;;;;;;4922313;29;20575;-72
2023/09/06 12:16:07;;;;;;;0.90;0.80;;;28.90;99.90;;;;;;4916157;29;20257;-74
2023/09/06 12:18:35;;;;;;;2.90;1.05;;;28.90;99.90;;;;;;4919138;29;20328;-71
2023/09/06 12:21:04;;;;;;;4.35;0.90;;;28.90;99.90;;;;;;4918682;29;20232;-71
2023/09/06 12:23:32;;;;;;;1.52;0.80;;;28.90;99.90;;;;;;4927617;29;20208;-72
2023/09/06 12:26:01;;;;;;;0.93;0.70;;;29.10;99.90;;;;;;4938219;29;20229;-72
2023/09/06 12:28:28;;;;;;;0.88;0.70;;;29.10;99.00;;;;;;4938104;29;20240;-73
2023/09/06 12:31:01;;;;;;;0.85;0.80;;;29.00;99.70;;;;;;4938298;29;20611;-72
2023/09/06 12:33:29;;;;;;;1.80;0.90;;;28.90;99.70;;;;;;4938412;29;20208;-71
2023/09/06 12:35:59;;;;;;;1.50;0.80;;;29.00;99.40;;;;;;4937830;29;20296;-71
2023/09/06 12:38:29;;;;;;;0.70;0.70;;;29.00;99.70;;;;;;4937750;29;20279;-72
2023/09/06 12:40:56;;;;;;;1.23;0.70;;;29.10;99.60;;;;;;4938257;29;20205;-71
2023/09/06 12:43:24;;;;;;;0.95;0.73;;;29.10;99.30;;;;;;4938150;29;20265;-71
2023/09/06 12:45:53;;;;;;;1.02;0.75;;;29.20;99.50;;;;;;4937792;29;20228;-71
2023/09/06 12:48:20;;;;;;;1.00;0.90;;;29.30;99.40;;;;;;4937654;29;20272;-70
2023/09/06 12:50:48;;;;;;;1.67;0.80;;;29.30;99.60;;;;;;4937732;29;20216;-71
2023/09/06 12:53:16;;;;;;;2.17;0.68;;;29.30;99.60;;;;;;4938232;29;20292;-72
2023/09/06 12:55:44;;;;;;;2.55;0.95;;;29.30;98.20;;;;;;4925208;29;20311;-70
2023/09/06 12:58:11;;;;;;;1.35;0.80;;;29.20;98.80;;;;;;4917325;29;20320;-72
2023/09/06 13:00:38;;;;;;;0.63;0.60;;;29.20;99.20;;;;;;4916657;29;20301;-72
2023/09/06 13:03:05;;;;;;;1.98;0.60;;;29.30;99.00;;;;;;4916127;29;20268;-71
2023/09/06 13:05:32;;;;;;;0.80;0.70;;;29.30;99.90;;;;;;4923350;29;20309;-70
2023/09/06 13:08:00;;;;;;;1.98;0.80;;;29.30;99.30;;;;;;4916872;29;20764;-72
2023/09/06 13:10:27;;;;;;;0.90;0.70;;;29.20;99.80;;;;;;4916302;29;20297;-73
2023/09/06 13:12:55;;;;;;;1.20;0.70;;;29.30;99.10;;;;;;4916111;29;20233;-72
2023/09/06 13:15:22;;;;;;;1.00;0.63;;;29.40;99.10;;;;;;4921941;29;20239;-73
2023/09/06 13:17:49;;;;;;;2.05;0.73;;;29.40;99.50;;;;;;4930324;29;20300;-72
2023/09/06 13:20:16;;;;;;;0.73;0.73;;;29.40;99.30;;;;;;4915703;29;20251;-72
2023/09/06 13:22:44;;;;;;;1.27;0.70;;;29.40;98.50;;;;;;4916446;29;20566;-72
2023/09/06 13:25:12;;;;;;;0.75;0.70;;;29.30;98.60;;;;;;4915271;29;20728;-72
2023/09/06 13:27:39;;;;;;;2.90;0.80;;;29.20;99.00;;;;;;4916474;29;20209;-72
2023/09/06 13:30:09;;;;;;;2.65;0.90;;;29.20;98.80;;;;;;4916290;29;20691;-71
2023/09/06 13:32:36;;;;;;;1.15;0.65;;;29.50;99.80;;;;;;4915661;29;20296;-71
2023/09/06 13:35:04;;;;;;;1.55;0.90;;;29.50;98.40;;;;;;4916166;29;20241;-72
2023/09/06 13:37:32;;;;;;;1.73;0.93;;;29.30;98.40;;;;;;4917236;29;20206;-73
2023/09/06 13:39:59;;;;;;;1.25;0.98;;;29.30;98.80;;;;;;4917354;29;20253;-73
2023/09/06 13:42:27;;;;;;;1.30;0.73;;;29.40;98.60;;;;;;4917716;29;20233;-73
2023/09/06 13:44:54;;;;;;;0.90;0.60;;;29.40;97.90;;;;;;4917515;29;20222;-73
2023/09/06 13:47:23;;;;;;;1.08;0.75;;;29.50;97.80;;;;;;4917474;29;20257;-73
2023/09/06 13:49:50;;;;;;;1.65;0.90;;;29.50;98.10;;;;;;4917067;29;20276;-73
2023/09/06 13:52:17;;;;;;;1.42;0.70;;;29.50;98.50;;;;;;4917054;29;20217;-73
2023/09/06 13:54:44;;;;;;;1.50;0.93;;;29.60;98.20;;;;;;4917483;29;20632;-73
2023/09/06 13:57:11;;;;;;;1.50;0.55;;;29.60;98.50;;;;;;4917555;29;20240;-73
2023/09/06 13:59:39;;;;;;;1.92;0.60;;;29.70;98.10;;;;;;4916775;29;20233;-73
2023/09/06 14:02:06;;;;;;;0.80;0.60;;;29.70;99.20;;;;;;4917643;29;20213;-73
2023/09/06 14:04:36;;;;;;;2.63;0.77;;;29.70;97.20;;;;;;4917294;29;20245;-73
2023/09/06 14:07:03;;;;;;;2.35;0.88;;;29.70;97.20;;;;;;4917574;29;20638;-73
2023/09/06 14:09:29;;;;;;;0.95;0.70;;;29.80;97.60;;;;;;4917732;29;20269;-72
2023/09/06 14:11:56;;;;;;;1.73;0.80;;;29.80;97.60;;;;;;4917381;29;20240;-73
2023/09/06 14:14:24;;;;;;;1.55;0.60;;;29.80;97.80;;;;;;4917070;29;20300;-73
2023/09/06 14:16:51;;;;;;;2.90;0.60;;;29.90;97.70;;;;;;4917396;29;20240;-72
2023/09/06 14:19:17;;;;;;;0.90;0.70;;;29.80;98.40;;;;;;4917078;29;20268;-72
2023/09/06 14:21:46;;;;;;;1.67;0.80;;;29.90;97.60;;;;;;4916826;29;20248;-72
2023/09/06 14:24:14;;;;;;;2.90;0.65;;;29.80;97.50;;;;;;4917053;29;20572;-74
2023/09/06 14:26:42;;;;;;;1.00;0.68;;;29.80;98.10;;;;;;4916908;29;20320;-73
2023/09/06 14:29:10;;;;;;;1.52;0.75;;;29.80;96.70;;;;;;4917213;29;20210;-72
2023/09/06 14:31:37;;;;;;;1.08;0.77;;;29.70;95.80;;;;;;4916585;29;20221;-72
2023/09/06 14:34:04;;;;;;;1.80;0.68;;;29.50;96.50;;;;;;4917071;29;20213;-72
2023/09/06 14:36:31;;;;;;;0.80;0.60;;;29.50;97.10;;;;;;4916942;29;20588;-72
2023/09/06 14:38:59;;;;;;;0.80;0.60;;;29.50;97.20;;;;;;4916973;29;20327;-72
2023/09/06 14:41:26;;;;;;;2.58;0.95;;;29.70;97.30;;;;;;4917273;29;20301;-73
2023/09/06 14:43:54;;;;;;;1.85;0.57;;;29.70;97.60;;;;;;4916710;29;20753;-73
2023/09/06 14:46:21;;;;;;;1.10;0.70;;;29.70;99.10;;;;;;4916795;29;20285;-73
2023/09/06 14:48:48;;;;;;;1.23;0.80;;;29.60;98.30;;;;;;4916925;29;20313;-73
2023/09/06 14:51:15;;;;;;;1.30;0.90;;;29.60;97.90;;;;;;4916630;29;20300;-73
2023/09/06 14:53:42;;;;;;;1.52;0.90;;;29.70;97.50;;;;;;4916781;29;20772;-73
2023/09/06 14:56:11;;;;;;;1.60;0.65;;;29.80;97.50;;;;;;4916754;29;20320;-73
2023/09/06 14:58:37;;;;;;;0.98;0.60;;;29.70;96.40;;;;;;4916739;29;20273;-73
2023/09/06 15:01:04;;;;;;;0.80;0.55;;;29.80;97.10;;;;;;4916607;29;20241;-73
2023/09/06 15:03:32;;;;;;;1.20;0.80;;;29.70;96.90;;;;;;4916937;29;20296;-73
2023/09/06 15:05:59;;;;;;;1.80;0.70;;;29.70;97.60;;;;;;4916562;29;20236;-73
2023/09/06 15:08:26;;;;;;;1.27;0.80;;;29.80;97.20;;;;;;4916765;29;20301;-73
2023/09/06 15:10:53;;;;;;;1.00;0.65;;;29.70;98.00;;;;;;4916945;29;20269;-73
2023/09/06 15:13:22;;;;;;;2.42;0.93;;;29.60;98.00;;;;;;4916794;29;20252;-73
2023/09/06 15:15:51;;;;;;;1.45;0.90;;;29.60;97.80;;;;;;4916354;29;20229;-73
2023/09/06 15:18:18;;;;;;;0.80;0.60;;;29.70;97.90;;;;;;4916534;29;20213;-73
2023/09/06 15:20:45;;;;;;;1.25;0.70;;;29.60;98.30;;;;;;4916075;29;20637;-72
2023/09/06 15:23:13;;;;;;;0.90;0.60;;;29.60;98.90;;;;;;4916530;29;20213;-72
2023/09/06 15:25:41;;;;;;;1.13;0.90;;;29.50;98.60;;;;;;4916281;29;20245;-73
2023/09/06 15:28:07;;;;;;;0.77;0.57;;;29.50;98.60;;;;;;4914092;29;20214;-73
2023/09/06 15:30:36;;;;;;;2.78;0.80;;;29.50;98.20;;;;;;4916584;29;20749;-73
2023/09/06 15:33:03;;;;;;;1.30;0.90;;;29.70;98.50;;;;;;4916366;29;20256;-73
2023/09/06 15:35:30;;;;;;;0.82;0.80;;;29.60;99.00;;;;;;4916155;29;20226;-73
2023/09/06 15:38:03;;;;;;;1.55;0.88;;;29.60;99.10;;;;;;4916515;29;20326;-73
2023/09/06 15:40:30;;;;;;;1.25;0.90;;;29.50;99.10;;;;;;4916643;29;20641;-73
2023/09/06 15:42:57;;;;;;;1.23;0.70;;;29.50;99.30;;;;;;4917171;29;20291;-73
2023/09/06 15:45:25;;;;;;;1.38;0.80;;;29.40;99.00;;;;;;4919880;29;20645;-73
2023/09/06 15:47:53;;;;;;;1.15;0.80;;;29.50;99.10;;;;;;4919887;29;20206;-73
2023/09/06 15:50:22;;;;;;;1.33;0.98;;;29.50;99.60;;;;;;4919457;29;20256;-73
2023/09/06 15:52:50;;;;;;;1.33;0.90;;;29.40;99.40;;;;;;4920036;29;20218;-72
2023/09/06 15:55:18;;;;;;;0.88;0.70;;;29.30;99.40;;;;;;4919907;29;20296;-73
2023/09/06 15:57:45;;;;;;;1.50;0.80;;;29.30;99.90;;;;;;4919815;29;20288;-73
2023/09/06 16:00:13;;;;;;;1.98;0.90;;;29.40;99.90;;;;;;4919595;29;20241;-72
2023/09/06 16:02:41;;;;;;;2.63;0.80;;;29.50;99.90;;;;;;4919534;29;20301;-72
2023/09/06 16:05:10;;;;;;;1.40;1.00;;;29.60;99.90;;;;;;4919578;29;20221;-72
2023/09/06 16:07:38;;;;;;;1.35;0.90;;;29.50;99.90;;;;;;4919298;29;20664;-73
